Time;durP1;ratioP1;P1;durP2;ratioP2;P2;SDS_P1;SDS_P2;PMS_P1;PMS_P2;Temp;Humidity;BMP_temperature;BMP_pressure;BME280_temperature;BME280_humidity;BME280_pressure;Samples;Min_cycle;Max_cycle;Signal;HPM_P1;HPM_P2
2023/01/30 00:00:31;;;;;;;29.30;3.70;;;;;;;6.49;100.00;101387.53;5035352;28;20025;-81
2023/01/30 00:02:57;;;;;;;22.33;3.88;;;;;;;6.53;100.00;101388.19;5026435;28;20037;-81
2023/01/30 00:05:23;;;;;;;26.80;3.63;;;;;;;6.51;100.00;101390.91;5032532;28;20095;-81
2023/01/30 00:07:49;;;;;;;25.70;3.58;;;;;;;6.49;100.00;101391.94;5019922;28;20021;-81
2023/01/30 00:10:15;;;;;;;24.00;3.80;;;;;;;6.49;100.00;101386.69;5036991;28;20025;-81
2023/01/30 00:12:41;;;;;;;23.38;3.53;;;;;;;6.52;100.00;101394.38;5014090;28;20037;-80
2023/01/30 00:15:07;;;;;;;29.40;3.50;;;;;;;6.55;100.00;101391.56;5031441;28;20367;-81
2023/01/30 00:17:33;;;;;;;27.73;4.40;;;;;;;6.55;100.00;101383.66;5036023;28;20033;-81
2023/01/30 00:19:59;;;;;;;30.42;4.18;;;;;;;6.54;100.00;101395.97;5028841;28;20052;-81
2023/01/30 00:22:24;;;;;;;27.25;3.38;;;;;;;6.54;100.00;101388.09;5012025;28;20041;-81
2023/01/30 00:24:50;;;;;;;37.30;5.10;;;;;;;6.53;100.00;101389.03;4995537;28;20068;-81
2023/01/30 00:27:16;;;;;;;30.75;4.55;;;;;;;6.50;100.00;101389.22;5024577;28;20124;-81
2023/01/30 00:29:42;;;;;;;25.58;3.70;;;;;;;6.47;100.00;101392.03;5045949;28;20102;-81
2023/01/30 00:32:08;;;;;;;24.73;3.63;;;;;;;6.44;100.00;101386.97;5042110;28;20097;-81
2023/01/30 00:34:34;;;;;;;27.45;4.00;;;;;;;6.44;100.00;101390.44;5048268;28;20032;-81
2023/01/30 00:37:00;;;;;;;30.58;4.20;;;;;;;6.41;100.00;101388.00;5037229;28;20223;-81
2023/01/30 00:39:26;;;;;;;19.33;3.03;;;;;;;6.40;100.00;101386.28;5053489;28;20028;-81
2023/01/30 00:47:22;;;;;;;22.55;3.50;;;;;;;6.26;100.00;101389.75;5046732;28;20381;-81
2023/01/30 00:49:51;;;;;;;20.17;3.30;;;;;;;6.27;100.00;101388.00;5042860;28;20113;-81
2023/01/30 00:52:17;;;;;;;25.17;2.90;;;;;;;6.27;100.00;101382.75;5066624;28;20477;-81
2023/01/30 00:54:42;;;;;;;21.63;3.78;;;;;;;6.27;100.00;101386.22;5044003;28;20483;-82
2023/01/30 00:57:08;;;;;;;16.10;2.63;;;;;;;6.27;100.00;101388.84;5035591;28;20053;-82
2023/01/30 00:59:34;;;;;;;23.25;3.47;;;;;;;6.29;100.00;101392.19;5057963;28;20045;-80
2023/01/30 01:02:00;;;;;;;25.60;4.07;;;;;;;6.30;100.00;101387.81;5046821;28;20036;-81
2023/01/30 01:04:26;;;;;;;29.58;4.75;;;;;;;6.28;100.00;101389.66;5038180;28;20123;-81
2023/01/30 01:06:51;;;;;;;19.83;2.80;;;;;;;6.28;100.00;101385.28;5029648;28;20043;-81
2023/01/30 01:09:18;;;;;;;22.92;4.50;;;;;;;6.28;100.00;101389.66;5027839;28;20062;-80
2023/01/30 01:11:44;;;;;;;18.83;3.75;;;;;;;6.24;100.00;101383.78;5050324;28;20113;-80
2023/01/30 01:14:10;;;;;;;29.48;4.13;;;;;;;6.23;100.00;101387.31;5027720;28;20527;-80
2023/01/30 01:16:36;;;;;;;28.50;2.80;;;;;;;6.20;100.00;101382.25;5050798;28;20052;-80
2023/01/30 01:19:02;;;;;;;22.40;3.40;;;;;;;6.19;100.00;101391.94;5051200;28;20029;-80
2023/01/30 01:21:28;;;;;;;23.50;3.92;;;;;;;6.20;100.00;101387.50;5051917;28;20032;-80
2023/01/30 01:23:57;;;;;;;19.70;3.38;;;;;;;6.18;100.00;101392.84;5024057;28;20089;-80
2023/01/30 01:26:23;;;;;;;13.55;2.30;;;;;;;6.15;100.00;101385.16;5061394;28;20112;-81
2023/01/30 01:28:48;;;;;;;16.52;2.72;;;;;;;6.13;100.00;101388.81;5009584;28;20112;-80
2023/01/30 01:31:16;;;;;;;13.50;2.35;;;;;;;6.13;100.00;101388.81;5060419;28;20071;-81
2023/01/30 01:33:42;;;;;;;20.45;2.78;;;;;;;6.10;100.00;101397.72;5043109;28;20051;-81
2023/01/30 01:36:07;;;;;;;23.45;2.85;;;;;;;6.15;100.00;101393.03;5052634;28;20528;-81
2023/01/30 01:38:34;;;;;;;14.95;2.05;;;;;;;6.15;100.00;101398.28;5064715;28;20029;-80
2023/01/30 01:41:06;;;;;;;18.92;2.47;;;;;;;6.18;100.00;101397.28;5048911;28;20816;-81
2023/01/30 01:43:37;;;;;;;17.40;2.10;;;;;;;6.20;100.00;101398.00;5033880;28;20792;-80
2023/01/30 01:46:17;;;;;;;22.40;2.53;;;;;;;6.23;100.00;101400.44;5031770;28;20079;-81
2023/01/30 01:48:48;;;;;;;16.33;2.83;;;;;;;6.17;100.00;101409.53;5048945;28;20029;-81
2023/01/30 01:51:16;;;;;;;17.23;2.60;;;;;;;6.13;100.00;101402.78;5059922;28;20029;-81
2023/01/30 01:53:48;;;;;;;19.90;2.20;;;;;;;6.16;100.00;101407.00;5044487;28;20139;-80
2023/01/30 01:56:18;;;;;;;21.50;3.55;;;;;;;6.16;100.00;101420.97;5066556;28;20040;-80
2023/01/30 01:58:49;;;;;;;14.27;2.80;;;;;;;6.20;100.00;101424.25;5063374;28;20040;-81
2023/01/30 02:01:17;;;;;;;16.73;2.03;;;;;;;6.17;100.00;101416.56;5035107;28;20036;-81
2023/01/30 02:03:53;;;;;;;19.95;2.83;;;;;;;6.18;100.00;101415.66;5067901;28;20117;-80
2023/01/30 02:06:20;;;;;;;16.70;2.28;;;;;;;6.20;100.00;101422.50;5048153;28;20489;-80
2023/01/30 02:08:51;;;;;;;16.52;2.50;;;;;;;6.24;100.00;101430.19;5023988;28;20032;-80
2023/01/30 02:11:59;;;;;;;12.38;1.88;;;;;;;6.20;100.00;101432.13;5050061;28;20037;-80
2023/01/30 02:14:25;;;;;;;;;;;;;;;6.13;100.00;101426.41;5001196;28;20052;-80
2023/01/30 02:16:50;;;;;;;25.80;3.20;;;;;;;6.15;100.00;101431.56;4993236;28;19917;-80
2023/01/30 02:19:31;;;;;;;13.25;1.83;;;;;;;6.20;100.00;101429.50;5030661;28;20044;-81
2023/01/30 02:22:34;;;;;;;13.32;2.83;;;;;;;6.23;100.00;101428.50;5031968;28;20037;-81
2023/01/30 02:25:34;;;;;;;14.20;2.03;;;;;;;6.23;100.00;101428.50;5056380;28;20029;-80
2023/01/30 02:28:19;;;;;;;14.20;1.75;;;;;;;6.19;100.00;101426.06;5058552;28;20065;-80
2023/01/30 02:31:12;;;;;;;14.40;2.35;;;;;;;6.22;100.00;101435.53;5060721;28;20028;-80
2023/01/30 02:33:47;;;;;;;12.73;1.70;;;;;;;6.20;100.00;101427.75;5029786;28;20032;-81
2023/01/30 02:36:42;;;;;;;15.80;1.92;;;;;;;6.24;100.00;101427.56;5047424;28;20037;-81
2023/01/30 02:39:18;;;;;;;14.10;2.00;;;;;;;6.24;100.00;101431.03;5048493;28;20037;-81
2023/01/30 02:42:07;;;;;;;22.13;2.60;;;;;;;6.27;100.00;101438.72;5046437;28;20743;-80
2023/01/30 02:45:14;;;;;;;13.75;1.73;;;;;;;6.23;100.00;101439.00;5031882;28;20051;-81
2023/01/30 02:47:52;;;;;;;14.98;2.35;;;;;;;6.22;100.00;101442.53;5052705;28;20069;-81
2023/01/30 02:50:24;;;;;;;19.23;3.65;;;;;;;6.22;100.00;101448.66;5012793;28;20038;-81
2023/01/30 02:52:50;;;;;;;12.25;1.75;;;;;;;6.24;100.00;101448.56;5039624;28;20091;-80
2023/01/30 02:55:23;;;;;;;9.55;2.65;;;;;;;6.27;100.00;101448.38;5043199;28;20033;-81
2023/01/30 02:57:49;;;;;;;12.93;2.03;;;;;;;6.22;100.00;101459.16;5047010;28;20041;-81
2023/01/30 03:00:22;;;;;;;13.00;2.50;;;;;;;6.24;100.00;101464.31;5020686;28;20037;-81
2023/01/30 03:03:25;;;;;;;17.70;1.88;;;;;;;6.23;100.00;101458.22;5057754;28;20037;-80
2023/01/30 03:06:03;;;;;;;15.90;3.20;;;;;;;6.20;100.00;101467.13;5043533;28;20486;-81
2023/01/30 03:08:41;;;;;;;14.07;3.67;;;;;;;6.22;100.00;101474.06;5059819;28;20085;-81
2023/01/30 03:11:09;;;;;;;19.15;5.07;;;;;;;6.18;100.00;101468.97;5051313;28;20076;-81
2023/01/30 03:13:39;;;;;;;13.27;1.95;;;;;;;6.17;100.00;101472.56;5022170;28;20036;-80
2023/01/30 03:16:14;;;;;;;20.58;2.47;;;;;;;6.18;100.00;101468.16;5037071;28;20068;-80
2023/01/30 03:18:42;;;;;;;16.07;2.73;;;;;;;6.15;100.00;101460.44;5042938;28;20056;-80
2023/01/30 03:21:08;;;;;;;17.77;2.80;;;;;;;6.11;100.00;101461.56;5065782;28;20024;-80
2023/01/30 03:23:33;;;;;;;12.90;2.40;;;;;;;6.07;100.00;101459.13;5043648;28;20033;-81
2023/01/30 03:26:04;;;;;;;20.38;2.22;;;;;;;6.11;100.00;101458.94;5035314;28;20032;-81
2023/01/30 03:28:31;;;;;;;23.48;2.80;;;;;;;6.08;100.00;101458.16;5046949;28;20304;-80
2023/01/30 03:30:57;;;;;;;11.70;1.67;;;;;;;6.10;100.00;101467.75;5014511;28;20095;-80
2023/01/30 03:33:23;;;;;;;10.63;1.63;;;;;;;6.08;100.00;101460.78;5041059;28;20044;-80
2023/01/30 03:35:51;;;;;;;12.90;1.80;;;;;;;6.13;100.00;101467.56;5033728;28;20401;-80
2023/01/30 03:38:17;;;;;;;11.73;1.73;;;;;;;6.10;100.00;101465.94;5007899;28;20032;-81
2023/01/30 03:40:46;;;;;;;15.38;1.77;;;;;;;6.13;100.00;101470.19;5032148;28;20037;-81
2023/01/30 03:43:12;;;;;;;17.42;2.58;;;;;;;6.10;100.00;101462.50;5024606;28;20028;-81
2023/01/30 03:45:37;;;;;;;14.35;2.45;;;;;;;6.13;100.00;101464.94;5035284;28;20566;-80
2023/01/30 03:48:04;;;;;;;16.20;1.42;;;;;;;6.15;100.00;101465.69;5050801;28;20033;-80
2023/01/30 03:50:30;;;;;;;11.55;2.00;;;;;;;6.15;100.00;101478.81;5041599;28;20039;-81
2023/01/30 03:52:56;;;;;;;14.95;1.85;;;;;;;6.14;100.00;101469.25;5040005;28;20029;-81
2023/01/30 03:55:22;;;;;;;19.83;2.45;;;;;;;6.14;100.00;101466.63;5081763;28;20035;-80
2023/01/30 03:57:48;;;;;;;17.40;2.67;;;;;;;6.16;100.00;101462.97;5047116;28;20071;-80
2023/01/30 04:00:15;;;;;;;13.63;2.58;;;;;;;6.18;100.00;101462.91;5060472;28;20560;-81
2023/01/30 04:02:47;;;;;;;13.75;2.50;;;;;;;6.18;100.00;101460.28;5033877;28;20045;-80
2023/01/30 04:05:15;;;;;;;13.02;2.05;;;;;;;6.22;100.00;101469.66;5053408;28;20104;-81
2023/01/30 04:07:47;;;;;;;13.30;2.50;;;;;;;6.17;100.00;101456.81;5027764;28;20032;-80
2023/01/30 04:10:14;;;;;;;13.75;2.42;;;;;;;6.15;100.00;101458.66;5074836;28;20040;-81
2023/01/30 04:12:41;;;;;;;10.77;2.10;;;;;;;6.21;100.00;101460.09;5046964;28;20507;-80
2023/01/30 04:15:08;;;;;;;16.80;2.28;;;;;;;6.23;100.00;101463.47;5034567;28;20040;-80
2023/01/30 04:17:57;;;;;;;11.50;2.10;;;;;;;6.20;100.00;101461.00;5015897;28;20115;-80
2023/01/30 04:20:47;;;;;;;9.65;1.88;;;;;;;6.20;100.00;101458.38;5020912;28;20067;-80
2023/01/30 04:23:18;;;;;;;18.35;2.60;;;;;;;6.17;100.00;101461.19;5043281;28;20039;-80
2023/01/30 04:25:45;;;;;;;6.85;1.80;;;;;;;6.17;100.00;101455.94;5053244;28;20036;-80
2023/01/30 04:28:14;;;;;;;13.50;2.28;;;;;;;6.14;100.00;101459.59;5042233;28;20096;-80
2023/01/30 04:30:42;;;;;;;15.68;3.05;;;;;;;6.13;100.00;101467.56;5014205;28;20030;-80
2023/01/30 04:33:43;;;;;;;15.40;2.30;;;;;;;6.08;100.00;101473.91;5050100;28;20674;-81
2023/01/30 04:36:12;;;;;;;18.05;2.60;;;;;;;6.08;100.00;101479.16;5039681;28;20043;-81
2023/01/30 04:38:38;;;;;;;14.32;1.63;;;;;;;6.10;100.00;101486.94;5054522;28;20036;-81
2023/01/30 04:41:06;;;;;;;11.93;1.98;;;;;;;6.10;100.00;101494.00;5053312;28;20037;-81
2023/01/30 04:43:34;;;;;;;13.23;2.42;;;;;;;6.06;100.00;101490.69;5029857;28;20044;-80
2023/01/30 04:46:22;;;;;;;14.65;2.20;;;;;;;6.05;100.00;101499.53;5041866;28;20044;-81
2023/01/30 04:48:48;;;;;;;15.82;2.25;;;;;;;6.06;100.00;101490.69;5045755;28;20025;-80
2023/01/30 04:51:14;;;;;;;10.85;1.77;;;;;;;6.07;100.00;101493.25;5026437;28;20075;-80
2023/01/30 04:53:40;;;;;;;10.77;1.70;;;;;;;6.08;100.00;101499.34;5023488;28;20055;-80
2023/01/30 04:56:06;;;;;;;15.52;2.55;;;;;;;6.07;100.00;101508.13;5073007;28;20079;-80
2023/01/30 04:58:32;;;;;;;16.35;2.03;;;;;;;6.05;100.00;101510.03;5023546;28;20041;-80
2023/01/30 05:01:22;;;;;;;12.98;1.95;;;;;;;6.01;100.00;101506.69;5068462;28;20037;-81
2023/01/30 05:03:52;;;;;;;11.15;2.00;;;;;;;5.96;100.00;101503.47;5032275;28;20017;-80
2023/01/30 05:06:19;;;;;;;16.20;1.80;;;;;;;5.92;100.00;101502.81;5036644;28;20102;-80
2023/01/30 05:08:52;;;;;;;12.45;1.95;;;;;;;5.92;100.00;101494.09;5046028;28;20029;-80
2023/01/30 05:11:19;;;;;;;10.52;1.80;;;;;;;5.88;100.00;101489.94;5036224;28;20040;-80
2023/01/30 05:13:45;;;;;;;13.02;2.40;;;;;;;5.86;100.00;101486.56;5041123;28;20135;-80
2023/01/30 05:16:13;;;;;;;16.25;2.00;;;;;;;5.84;100.00;101487.47;5030076;28;20095;-80
2023/01/30 05:18:39;;;;;;;11.93;1.70;;;;;;;5.79;100.00;101500.03;5059237;28;20033;-80
2023/01/30 05:21:09;;;;;;;14.00;2.50;;;;;;;5.78;100.00;101505.38;5048922;28;20375;-80
2023/01/30 05:23:34;;;;;;;17.08;1.85;;;;;;;5.71;100.00;101515.38;5046397;28;20036;-80
2023/01/30 05:26:01;;;;;;;20.25;2.70;;;;;;;5.74;100.00;101512.56;5056422;28;20059;-80
2023/01/30 05:28:28;;;;;;;12.75;1.65;;;;;;;5.74;100.00;101514.34;5036684;28;20523;-81
2023/01/30 05:30:59;;;;;;;25.23;2.30;;;;;;;5.73;100.00;101510.03;5025469;28;20606;-80
2023/01/30 05:33:24;;;;;;;18.08;2.13;;;;;;;5.65;100.00;101503.44;5012989;28;20164;-80
2023/01/30 05:35:50;;;;;;;17.50;2.22;;;;;;;5.63;100.00;101497.44;5026005;28;20038;-80
2023/01/30 05:38:16;;;;;;;22.67;2.65;;;;;;;5.58;100.00;101491.59;5021899;28;20044;-80
2023/01/30 05:40:42;;;;;;;11.45;2.03;;;;;;;5.54;100.00;101501.41;5029107;28;20110;-80
2023/01/30 05:43:08;;;;;;;12.23;1.55;;;;;;;5.51;100.00;101505.97;5031372;28;20045;-80
2023/01/30 05:45:35;;;;;;;12.15;2.05;;;;;;;5.51;100.00;101498.94;5028677;28;20461;-81
2023/01/30 05:48:01;;;;;;;17.23;2.50;;;;;;;5.51;100.00;101500.75;5033424;28;20036;-80
2023/01/30 05:50:27;;;;;;;17.48;2.88;;;;;;;5.53;100.00;101497.09;5031919;28;20033;-81
2023/01/30 05:52:53;;;;;;;13.35;2.42;;;;;;;5.50;100.00;101492.00;5031783;28;20160;-80
2023/01/30 05:55:19;;;;;;;12.50;2.33;;;;;;;5.45;100.00;101492.28;5055485;28;20532;-80
2023/01/30 05:57:45;;;;;;;9.55;1.67;;;;;;;5.46;100.00;101495.75;5052560;28;20086;-81
2023/01/30 06:00:12;;;;;;;11.77;1.67;;;;;;;5.44;100.00;101484.50;5051789;28;20370;-80
2023/01/30 06:02:40;;;;;;;13.90;2.95;;;;;;;5.42;100.00;101478.47;5018965;28;20053;-80
2023/01/30 06:05:06;;;;;;;18.17;2.20;;;;;;;5.42;100.00;101478.47;5031122;28;20025;-80
2023/01/30 06:07:32;;;;;;;11.40;1.55;;;;;;;5.42;100.00;101479.34;5021774;28;20086;-81
2023/01/30 06:09:58;;;;;;;12.73;2.25;;;;;;;5.40;100.00;101473.31;5033349;28;20033;-81
2023/01/30 06:12:23;;;;;;;14.25;1.75;;;;;;;5.41;100.00;101476.78;5051219;28;20900;-81
2023/01/30 06:14:49;;;;;;;11.52;1.50;;;;;;;5.36;100.00;101479.69;5003850;28;20034;-81
2023/01/30 06:17:15;;;;;;;9.82;1.58;;;;;;;5.36;100.00;101481.44;5044647;28;20397;-81
2023/01/30 06:19:40;;;;;;;10.85;1.80;;;;;;;5.33;100.00;101480.69;5044846;28;20036;-81
2023/01/30 06:22:06;;;;;;;18.30;3.10;;;;;;;5.32;100.00;101486.84;5051957;28;20049;-81
2023/01/30 06:24:32;;;;;;;14.88;2.08;;;;;;;5.32;100.00;101486.00;5025704;28;20041;-82
2023/01/30 06:26:58;;;;;;;15.10;1.80;;;;;;;5.31;100.00;101487.78;5010185;28;20045;-82
2023/01/30 06:29:24;;;;;;;18.27;2.35;;;;;;;5.31;100.00;101484.31;5007314;28;20050;-81
2023/01/30 06:31:50;;;;;;;25.17;2.78;;;;;;;5.29;100.00;101480.91;5041469;28;20038;-81
2023/01/30 06:34:16;;;;;;;20.60;3.30;;;;;;;5.28;100.00;101485.34;5054859;28;20696;-81
2023/01/30 06:36:42;;;;;;;13.23;1.88;;;;;;;5.26;100.00;101488.97;5035086;28;20032;-81
2023/01/30 06:39:08;;;;;;;17.10;1.85;;;;;;;5.24;100.00;101493.47;5019108;28;20074;-81
2023/01/30 06:41:34;;;;;;;11.48;1.83;;;;;;;5.23;100.00;101487.34;5047322;28;20067;-81
2023/01/30 06:44:00;;;;;;;11.50;1.38;;;;;;;5.19;100.00;101491.09;5036895;28;20029;-81
2023/01/30 06:46:26;;;;;;;11.13;1.88;;;;;;;5.22;100.00;101491.75;5060817;28;20392;-81
2023/01/30 06:48:51;;;;;;;13.40;2.20;;;;;;;5.27;100.00;101490.66;5057490;28;20025;-81
2023/01/30 06:51:17;;;;;;;20.73;2.75;;;;;;;5.27;100.00;101488.88;5052060;28;20489;-81
2023/01/30 06:53:43;;;;;;;16.63;1.65;;;;;;;5.29;100.00;101483.53;4995907;28;20116;-80
2023/01/30 06:56:10;;;;;;;18.48;3.97;;;;;;;5.32;100.00;101483.38;5034102;28;20033;-81
2023/01/30 06:58:36;;;;;;;13.57;1.98;;;;;;;5.32;100.00;101488.63;5036622;28;20035;-80
2023/01/30 07:01:02;;;;;;;20.08;2.05;;;;;;;5.32;100.00;101499.09;5018994;28;20025;-81
2023/01/30 07:03:28;;;;;;;17.83;2.65;;;;;;;5.31;100.00;101493.03;5039547;28;20052;-81
2023/01/30 07:05:53;;;;;;;10.77;2.28;;;;;;;5.30;100.00;101500.97;5034239;28;20099;-81
2023/01/30 07:08:19;;;;;;;11.75;1.65;;;;;;;5.29;100.00;101505.38;5052762;28;20029;-81
2023/01/30 07:10:45;;;;;;;14.27;1.85;;;;;;;5.25;100.00;101503.84;5036570;28;20071;-81
2023/01/30 07:13:11;;;;;;;15.40;2.00;;;;;;;5.27;100.00;101509.00;5023185;28;20477;-81
2023/01/30 07:15:37;;;;;;;13.18;1.80;;;;;;;5.25;100.00;101513.50;5021726;28;20037;-81
2023/01/30 07:18:03;;;;;;;16.42;2.20;;;;;;;5.20;100.00;101525.06;5057054;28;20029;-81
2023/01/30 07:20:30;;;;;;;13.35;1.73;;;;;;;5.20;100.00;101526.84;5014188;28;20043;-81
2023/01/30 07:22:56;;;;;;;14.57;2.05;;;;;;;5.19;100.00;101535.66;5027415;28;20031;-81
2023/01/30 07:25:24;;;;;;;12.82;1.77;;;;;;;5.20;100.00;101540.81;5049354;28;20025;-81
2023/01/30 07:28:00;;;;;;;9.35;1.80;;;;;;;5.17;100.00;101537.50;5033667;28;20036;-81
2023/01/30 07:30:28;;;;;;;13.52;2.08;;;;;;;5.18;100.00;101542.66;5032798;28;20495;-81
2023/01/30 07:32:57;;;;;;;12.48;2.42;;;;;;;5.21;100.00;101550.34;5051178;28;20481;-81
2023/01/30 07:35:24;;;;;;;15.60;1.88;;;;;;;5.24;100.00;101551.94;5029221;28;20539;-80
2023/01/30 07:37:50;;;;;;;10.02;1.70;;;;;;;5.26;100.00;101555.34;4999483;28;20040;-80
2023/01/30 07:40:18;;;;;;;14.43;2.10;;;;;;;5.26;100.00;101547.47;4996598;28;20060;-80
2023/01/30 07:42:55;;;;;;;16.23;2.45;;;;;;;5.32;100.00;101554.16;5002290;28;20029;-81
2023/01/30 07:45:20;;;;;;;15.05;1.85;;;;;;;5.29;100.00;101557.81;5031416;28;20037;-80
2023/01/30 07:47:46;;;;;;;12.23;2.22;;;;;;;5.28;100.00;101553.50;5042711;28;20037;-80
2023/01/30 07:50:12;;;;;;;12.02;1.88;;;;;;;5.29;100.00;101557.81;5037039;28;20389;-80
2023/01/30 07:52:38;;;;;;;13.30;1.65;;;;;;;5.27;100.00;101566.69;5043852;28;20029;-80
2023/01/30 07:55:04;;;;;;;17.20;2.50;;;;;;;5.21;100.00;101565.22;5034706;28;20033;-81
2023/01/30 07:57:29;;;;;;;14.07;1.83;;;;;;;5.19;100.00;101573.16;5037860;28;20540;-80
2023/01/30 07:59:55;;;;;;;13.65;2.05;;;;;;;5.14;100.00;101577.81;5012302;28;20037;-81
2023/01/30 08:02:21;;;;;;;13.75;1.80;;;;;;;5.08;100.00;101584.22;5020181;28;20551;-81
2023/01/30 08:04:47;;;;;;;13.63;1.42;;;;;;;5.04;100.00;101594.94;5025479;28;20040;-80
2023/01/30 08:07:12;;;;;;;12.07;1.80;;;;;;;5.01;100.00;101598.59;5026459;28;20091;-80
2023/01/30 08:09:38;;;;;;;13.27;1.80;;;;;;;4.96;100.00;101601.44;5005187;28;20099;-80
2023/01/30 08:12:04;;;;;;;10.13;1.55;;;;;;;4.94;100.00;101598.03;5040580;28;20035;-81
2023/01/30 08:14:29;;;;;;;16.48;2.05;;;;;;;4.97;100.00;101603.13;5026827;28;21751;-80
2023/01/30 08:16:56;;;;;;;12.13;1.58;;;;;;;4.97;100.00;101602.25;5019388;28;20073;-80
2023/01/30 08:19:21;;;;;;;20.30;2.20;;;;;;;4.98;100.00;101611.84;5045156;28;20064;-81
2023/01/30 08:21:47;;;;;;;16.85;2.03;;;;;;;5.02;100.00;101605.50;5021768;28;20057;-81
2023/01/30 08:24:13;;;;;;;14.30;2.40;;;;;;;5.04;100.00;101614.13;5023787;28;20413;-80
2023/01/30 08:26:39;;;;;;;18.58;3.30;;;;;;;5.05;100.00;101607.97;5001569;28;20037;-81
2023/01/30 08:29:05;;;;;;;12.20;1.80;;;;;;;5.07;100.00;101613.97;5070837;28;20028;-80
2023/01/30 08:31:31;;;;;;;16.55;2.50;;;;;;;5.11;100.00;101617.31;5041806;28;20489;-80
2023/01/30 08:33:57;;;;;;;8.63;1.48;;;;;;;5.12;100.00;101612.88;5026253;28;20090;-80
2023/01/30 08:36:23;;;;;;;13.68;2.30;;;;;;;5.07;100.00;101607.88;5058554;28;20102;-80
2023/01/30 08:38:49;;;;;;;13.45;2.20;;;;;;;5.06;100.00;101612.31;5053445;28;20032;-81
2023/01/30 08:41:15;;;;;;;16.15;1.98;;;;;;;5.04;100.00;101622.00;5047668;28;20036;-81
2023/01/30 08:43:40;;;;;;;15.43;1.80;;;;;;;5.08;100.00;101620.09;5060373;28;20510;-81
2023/01/30 08:46:06;;;;;;;14.60;1.70;;;;;;;5.06;100.00;101629.78;5006286;28;20029;-81
2023/01/30 08:48:32;;;;;;;12.05;1.92;;;;;;;5.08;100.00;101626.16;5061455;28;20473;-81
2023/01/30 08:50:57;;;;;;;14.77;2.35;;;;;;;5.15;100.00;101633.69;5050963;28;20099;-81
2023/01/30 08:53:23;;;;;;;15.65;2.55;;;;;;;5.24;100.00;101614.88;5058565;28;20440;-81
2023/01/30 08:55:51;;;;;;;11.90;1.98;;;;;;;5.28;100.00;101619.03;5019525;28;20146;-80
2023/01/30 08:58:17;;;;;;;16.27;2.33;;;;;;;5.29;100.00;101620.72;5065265;28;20037;-81
2023/01/30 09:00:43;;;;;;;11.40;1.98;;;;;;;5.38;100.00;101624.66;5051389;28;20037;-80
2023/01/30 09:03:10;;;;;;;15.30;2.10;;;;;;;5.42;100.00;101620.94;5028949;28;20167;-81
2023/01/30 09:05:36;;;;;;;17.48;2.20;;;;;;;5.44;100.00;101623.47;5059686;28;20038;-81
2023/01/30 09:08:02;;;;;;;19.52;2.10;;;;;;;5.46;100.00;101632.09;5031220;28;20037;-82
2023/01/30 09:10:29;;;;;;;21.73;1.83;;;;;;;5.46;100.00;101632.94;5025393;28;20076;-81
2023/01/30 09:12:54;;;;;;;11.00;1.88;;;;;;;5.51;100.00;101632.69;5039972;28;20122;-80
2023/01/30 09:15:20;;;;;;;15.75;2.05;;;;;;;5.52;100.00;101636.16;5007573;28;20207;-81
2023/01/30 09:17:46;;;;;;;17.60;2.70;;;;;;;5.53;100.00;101628.22;5045434;28;20491;-81
2023/01/30 09:20:12;;;;;;;16.08;2.03;;;;;;;5.53;100.00;101633.47;5065325;28;20149;-80
2023/01/30 09:22:38;;;;;;;13.30;2.60;;;;;;;5.57;100.00;101634.97;5041253;28;20037;-80
2023/01/30 09:25:05;;;;;;;14.98;2.00;;;;;;;5.64;100.00;101627.63;5045181;28;20040;-81
2023/01/30 09:27:31;;;;;;;12.60;2.22;;;;;;;5.71;100.00;101625.53;5048434;28;20408;-80
2023/01/30 09:29:57;;;;;;;12.38;1.73;;;;;;;5.75;100.00;101620.97;5048558;28;20037;-80
2023/01/30 09:32:23;;;;;;;11.85;2.33;;;;;;;5.80;100.00;101625.03;5035577;28;20036;-80
2023/01/30 09:34:48;;;;;;;13.57;2.17;;;;;;;5.81;100.00;101637.22;5042013;28;20033;-81
2023/01/30 09:37:14;;;;;;;17.35;1.83;;;;;;;5.88;100.00;101650.00;5042275;28;20036;-81
2023/01/30 09:39:40;;;;;;;13.82;1.67;;;;;;;5.94;100.00;101662.81;5017562;28;20067;-81
2023/01/30 09:42:22;;;;;;;16.40;2.13;;;;;;;6.02;100.00;101654.53;5050985;28;20056;-81
2023/01/30 09:45:13;;;;;;;13.45;3.67;;;;;;;6.08;100.00;101655.03;5043334;28;20101;-80
2023/01/30 09:47:45;;;;;;;13.07;2.20;;;;;;;6.16;100.00;101638.03;5024028;28;20033;-80
2023/01/30 09:50:17;;;;;;;9.35;2.53;;;;;;;6.20;100.00;101647.41;5048589;28;20072;-81
2023/01/30 09:53:01;;;;;;;24.25;2.13;;;;;;;6.26;100.00;101647.06;5042366;28;20051;-82
2023/01/30 09:55:30;;;;;;;9.50;2.10;;;;;;;6.26;100.00;101660.19;5045551;28;20388;-80
2023/01/30 09:57:58;;;;;;;21.25;2.58;;;;;;;6.23;100.00;101649.03;5046332;28;20047;-80
2023/01/30 10:00:34;;;;;;;9.13;1.63;;;;;;;6.22;100.00;101658.69;5043511;28;20037;-80
2023/01/30 10:03:03;;;;;;;18.30;2.13;;;;;;;6.24;100.00;101650.72;5016245;28;20475;-81
2023/01/30 10:05:44;;;;;;;16.10;2.17;;;;;;;6.25;100.00;101652.41;5048737;28;20029;-81
2023/01/30 10:08:42;;;;;;;16.27;1.90;;;;;;;6.22;100.00;101661.31;5051837;28;20473;-80
2023/01/30 10:11:20;;;;;;;;;;;;;;;6.11;100.00;101659.28;5070296;28;20032;-80
2023/01/30 10:14:14;;;;;;;13.10;1.85;;;;;;;6.18;100.00;101662.44;5039367;28;19916;-81
2023/01/30 10:17:01;;;;;;;11.55;1.92;;;;;;;6.23;100.00;101672.69;5042128;28;20040;-80
2023/01/30 10:20:00;;;;;;;17.50;3.03;;;;;;;6.36;100.00;101670.19;5057393;28;20032;-80
2023/01/30 10:22:45;;;;;;;15.00;2.38;;;;;;;6.45;100.00;101670.53;5037551;28;20033;-80
2023/01/30 10:25:36;;;;;;;12.57;1.77;;;;;;;6.57;100.00;101674.25;5061454;28;20123;-80
2023/01/30 10:28:28;;;;;;;18.38;2.33;;;;;;;6.66;100.00;101672.00;5058833;28;20040;-80
2023/01/30 10:31:09;;;;;;;15.13;2.25;;;;;;;6.68;100.00;101678.03;5046965;28;20033;-80
2023/01/30 10:33:45;;;;;;;9.07;1.63;;;;;;;6.71;100.00;101680.47;5053289;28;20105;-81
2023/01/30 10:36:21;;;;;;;18.55;3.08;;;;;;;6.72;100.00;101676.06;5034386;28;20040;-80
2023/01/30 10:38:49;;;;;;;14.30;2.22;;;;;;;6.70;100.00;101679.63;5047078;28;20116;-81
2023/01/30 10:41:25;;;;;;;14.95;2.53;;;;;;;6.75;100.00;101684.63;5052836;28;20067;-81
2023/01/30 10:44:03;;;;;;;13.52;3.28;;;;;;;6.82;100.00;101693.84;5055797;28;20049;-81
2023/01/30 10:46:53;;;;;;;12.93;2.53;;;;;;;6.80;100.00;101685.19;5037410;28;20025;-81
2023/01/30 10:49:38;;;;;;;12.73;2.47;;;;;;;6.80;100.00;101695.72;5050158;28;20029;-81
2023/01/30 10:52:43;;;;;;;17.63;2.22;;;;;;;6.87;100.00;101696.22;5034873;28;20510;-81
2023/01/30 10:55:15;;;;;;;12.13;2.80;;;;;;;6.91;100.00;101697.72;5043682;28;20033;-80
2023/01/30 10:58:03;;;;;;;22.17;3.35;;;;;;;7.04;100.00;101697.03;5051282;28;20906;-81
2023/01/30 11:00:35;;;;;;;17.77;2.65;;;;;;;7.15;100.00;101704.28;5062175;28;20029;-81
2023/01/30 11:03:10;;;;;;;11.35;2.70;;;;;;;7.17;100.00;101695.34;5041638;28;20041;-81
2023/01/30 11:05:46;;;;;;;15.63;2.83;;;;;;;7.24;100.00;101687.94;5019947;28;20056;-80
2023/01/30 11:08:18;;;;;;;;;;;;;;;7.23;100.00;101688.03;5027614;28;20044;-81
2023/01/30 11:10:44;;;;;;;18.70;1.83;;;;;;;7.30;100.00;101698.09;5036400;28;19949;-81
2023/01/30 11:13:26;;;;;;;17.45;3.63;;;;;;;7.40;100.00;101684.38;5054023;28;20051;-80
2023/01/30 11:15:55;;;;;;;13.13;2.30;;;;;;;7.47;100.00;101692.78;5058562;28;20041;-80
2023/01/30 11:18:22;;;;;;;13.55;2.10;;;;;;;7.53;100.00;101693.22;5059130;28;20464;-81
2023/01/30 11:21:13;;;;;;;16.20;2.88;;;;;;;7.59;100.00;101692.00;5065742;28;20119;-81
2023/01/30 11:23:41;;;;;;;22.67;2.50;;;;;;;7.58;100.00;101690.31;5033230;28;20045;-81
2023/01/30 11:26:16;;;;;;;18.88;2.75;;;;;;;7.57;100.00;101680.72;5037311;28;20031;-81
2023/01/30 11:28:42;;;;;;;15.33;2.17;;;;;;;7.57;100.00;101692.13;5055370;28;20068;-81
2023/01/30 11:31:20;;;;;;;16.23;2.22;;;;;;;7.62;100.00;101686.56;5043310;28;20385;-81
2023/01/30 11:34:04;;;;;;;22.83;2.50;;;;;;;7.61;100.00;101682.25;5056429;28;20040;-81
2023/01/30 11:36:33;;;;;;;19.45;2.75;;;;;;;7.67;100.00;101686.28;5054594;28;20477;-81
2023/01/30 11:39:18;;;;;;;13.55;2.38;;;;;;;7.67;100.00;101689.78;5013201;28;20033;-81